createdAt,value
2018-07-21T00:00:56.135Z,23.24
2018-07-21T00:01:56.125Z,23.22
2018-07-21T00:02:56.151Z,23.18
2018-07-21T00:03:56.173Z,23.07
2018-07-21T00:04:56.198Z,23.18
2018-07-21T00:05:56.223Z,23.14
2018-07-21T00:06:56.251Z,23.10
2018-07-21T00:07:56.275Z,23.14
2018-07-21T00:08:56.297Z,23.09
2018-07-21T00:09:56.321Z,23.15
2018-07-21T00:10:56.347Z,23.12
2018-07-21T00:11:56.376Z,23.21
2018-07-21T00:12:56.402Z,23.06
2018-07-21T00:13:56.422Z,23.14
2018-07-21T00:14:56.447Z,23.16
2018-07-21T00:15:56.471Z,23.16
2018-07-21T00:16:56.493Z,23.15
2018-07-21T00:17:56.519Z,23.10
2018-07-21T00:18:56.542Z,23.07
2018-07-21T00:19:56.566Z,23.14
2018-07-21T00:20:56.586Z,23.03
2018-07-21T00:21:56.614Z,23.12
2018-07-21T00:22:56.634Z,23.18
2018-07-21T00:23:56.656Z,23.09
2018-07-21T00:24:56.684Z,23.12
2018-07-21T00:25:56.757Z,23.01
2018-07-21T00:26:56.730Z,23.00
2018-07-21T00:27:56.750Z,23.06
2018-07-21T00:28:56.775Z,22.91
2018-07-21T00:29:56.802Z,22.96
2018-07-21T00:30:56.825Z,22.96
2018-07-21T00:31:56.844Z,22.96
2018-07-21T00:32:56.870Z,22.92
2018-07-21T00:33:56.894Z,22.92
2018-07-21T00:34:56.917Z,22.85
2018-07-21T00:35:56.939Z,22.71
2018-07-21T00:36:56.963Z,22.79
2018-07-21T00:37:56.984Z,22.73
2018-07-21T00:38:57.010Z,22.70
2018-07-21T00:39:57.031Z,22.78
2018-07-21T00:40:57.058Z,22.64
2018-07-21T00:41:57.077Z,22.69
2018-07-21T00:42:57.099Z,22.64
2018-07-21T00:43:57.123Z,22.67
2018-07-21T00:44:57.146Z,22.57
2018-07-21T00:45:57.172Z,22.66
2018-07-21T00:46:57.192Z,22.71
2018-07-21T00:47:57.215Z,22.59
2018-07-21T00:48:57.241Z,22.64
2018-07-21T00:49:57.265Z,22.59
2018-07-21T00:50:57.284Z,22.60
2018-07-21T00:51:57.307Z,22.61
2018-07-21T00:52:57.329Z,22.57
2018-07-21T00:53:57.353Z,22.55
2018-07-21T00:54:57.378Z,22.52
2018-07-21T00:55:57.404Z,22.55
2018-07-21T00:56:57.421Z,22.51
2018-07-21T00:57:57.445Z,22.44
2018-07-21T00:58:57.468Z,22.45
2018-07-21T00:59:57.493Z,22.48
2018-07-21T01:00:57.516Z,22.57
2018-07-21T01:01:57.540Z,22.48
2018-07-21T01:02:57.566Z,22.57
2018-07-21T01:03:57.588Z,22.49
2018-07-21T01:04:57.606Z,22.52
2018-07-21T01:05:57.628Z,22.48
2018-07-21T01:06:57.653Z,22.39
2018-07-21T01:07:57.676Z,22.49
2018-07-21T01:08:57.698Z,22.45
2018-07-21T01:09:57.721Z,22.48
2018-07-21T01:10:57.742Z,22.48
2018-07-21T01:11:57.767Z,22.48
2018-07-21T01:12:57.789Z,22.45
2018-07-21T01:13:57.813Z,22.39
2018-07-21T01:14:57.836Z,22.44
2018-07-21T01:15:57.859Z,22.36
2018-07-21T01:16:57.883Z,22.38
2018-07-21T01:17:57.901Z,22.34
2018-07-21T01:18:57.924Z,22.34
2018-07-21T01:19:57.954Z,22.33
2018-07-21T01:20:57.978Z,22.36
2018-07-21T01:21:57.992Z,22.31
2018-07-21T01:22:58.018Z,22.26
2018-07-21T01:23:58.040Z,22.27
2018-07-21T01:24:58.063Z,22.26
2018-07-21T01:25:58.087Z,22.16
2018-07-21T01:26:58.112Z,22.26
2018-07-21T01:27:58.129Z,22.26
2018-07-21T01:28:58.154Z,22.15
2018-07-21T01:29:58.176Z,22.30
2018-07-21T01:30:58.197Z,22.24
2018-07-21T01:31:58.222Z,22.24
2018-07-21T01:32:58.244Z,22.26
2018-07-21T01:33:58.264Z,22.29
2018-07-21T01:34:58.288Z,22.18
2018-07-21T01:35:58.310Z,22.16
2018-07-21T01:36:58.335Z,22.11
2018-07-21T01:37:58.357Z,22.11
2018-07-21T01:38:58.383Z,22.14
2018-07-21T01:39:58.403Z,22.04
2018-07-21T01:40:58.423Z,22.07
2018-07-21T01:41:58.449Z,22.05
2018-07-21T01:42:58.470Z,22.02
2018-07-21T01:43:58.491Z,22.05
2018-07-21T01:44:58.517Z,22.07
2018-07-21T01:45:58.537Z,22.12
2018-07-21T01:46:58.561Z,22.08
2018-07-21T01:47:58.582Z,22.07
2018-07-21T01:48:58.603Z,22.08
2018-07-21T01:49:58.626Z,22.08
2018-07-21T01:50:58.648Z,22.08
2018-07-21T01:51:58.674Z,22.05
2018-07-21T01:52:58.693Z,22.05
2018-07-21T01:53:58.724Z,21.99
2018-07-21T01:54:58.739Z,22.04
2018-07-21T01:55:58.762Z,22.02
2018-07-21T01:56:58.787Z,21.97
2018-07-21T01:57:58.810Z,22.00
2018-07-21T01:58:58.833Z,22.09
2018-07-21T01:59:58.852Z,22.05
2018-07-21T02:00:58.877Z,22.07
2018-07-21T02:01:58.897Z,21.99
2018-07-21T02:02:58.922Z,22.12
2018-07-21T02:03:58.949Z,22.04
2018-07-21T02:04:58.968Z,22.11
2018-07-21T02:05:58.989Z,22.07
2018-07-21T02:06:59.016Z,22.00
2018-07-21T02:07:59.035Z,22.05
2018-07-21T02:08:59.058Z,22.00
2018-07-21T02:09:59.082Z,22.00
2018-07-21T02:10:59.101Z,21.97
2018-07-21T02:11:59.125Z,21.94
2018-07-21T02:12:59.148Z,22.00
2018-07-21T02:13:59.169Z,21.92
2018-07-21T02:14:59.191Z,21.96
2018-07-21T02:15:59.214Z,21.94
2018-07-21T02:16:59.239Z,21.93
2018-07-21T02:17:59.258Z,21.86
2018-07-21T02:18:59.285Z,21.86
2018-07-21T02:19:59.310Z,21.89
2018-07-21T02:20:59.329Z,21.86
2018-07-21T02:21:59.350Z,21.94
2018-07-21T02:22:59.374Z,22.00
2018-07-21T02:23:59.395Z,22.00
2018-07-21T02:24:59.419Z,21.94
2018-07-21T02:25:59.442Z,21.92
2018-07-21T02:26:59.464Z,21.90
2018-07-21T02:27:59.487Z,21.89
2018-07-21T02:28:59.506Z,22.00
2018-07-21T02:29:59.530Z,21.85
2018-07-21T02:30:59.553Z,21.86
2018-07-21T02:31:59.580Z,21.86
2018-07-21T02:32:59.598Z,21.86
2018-07-21T02:33:59.620Z,21.86
2018-07-21T02:34:59.643Z,21.85
2018-07-21T02:35:59.666Z,21.92
2018-07-21T02:36:59.688Z,21.89
2018-07-21T02:37:59.724Z,21.93
2018-07-21T02:38:59.733Z,21.85
2018-07-21T02:39:59.758Z,21.92
2018-07-21T02:40:59.780Z,21.96
2018-07-21T02:41:59.799Z,22.00
2018-07-21T02:42:59.822Z,21.96
2018-07-21T02:43:59.843Z,21.97
2018-07-21T02:44:59.866Z,21.94
2018-07-21T02:45:59.890Z,21.89
2018-07-21T02:46:59.969Z,21.90
2018-07-21T02:47:59.937Z,21.86
2018-07-21T02:48:59.960Z,21.77
2018-07-21T02:49:59.982Z,21.92
2018-07-21T02:51:00.006Z,21.74
2018-07-21T02:52:00.027Z,21.82
2018-07-21T02:53:00.053Z,21.82
2018-07-21T02:54:00.071Z,21.90
2018-07-21T02:55:00.095Z,21.76
2018-07-21T02:56:00.116Z,21.83
2018-07-21T02:57:00.139Z,21.90
2018-07-21T02:58:00.159Z,21.83
2018-07-21T02:59:00.182Z,21.83
2018-07-21T03:00:00.207Z,21.83
2018-07-21T03:01:00.226Z,21.86
2018-07-21T03:02:00.248Z,21.82
2018-07-21T03:03:00.275Z,21.74
2018-07-21T03:04:00.295Z,21.74
2018-07-21T03:05:00.322Z,21.74
2018-07-21T03:06:00.341Z,21.73
2018-07-21T03:07:00.362Z,21.73
2018-07-21T03:08:00.394Z,21.80
2018-07-21T03:09:00.413Z,21.73
2018-07-21T03:10:00.448Z,21.80
2018-07-21T03:11:00.451Z,21.77
2018-07-21T03:12:00.472Z,21.67
2018-07-21T03:13:00.499Z,21.66
2018-07-21T03:14:00.523Z,21.67
2018-07-21T03:15:00.542Z,21.66
2018-07-21T03:16:00.565Z,21.68
2018-07-21T03:17:00.585Z,21.76
2018-07-21T03:18:00.608Z,21.68
2018-07-21T03:19:00.657Z,21.80
2018-07-21T03:20:00.651Z,21.78
2018-07-21T03:21:00.677Z,21.90
2018-07-21T03:22:00.699Z,21.89
2018-07-21T03:23:00.769Z,21.86
2018-07-21T03:24:00.740Z,21.76
2018-07-21T03:25:00.763Z,21.73
2018-07-21T03:26:00.786Z,21.77
2018-07-21T03:27:00.810Z,21.80
2018-07-21T03:28:00.833Z,21.73
2018-07-21T03:29:00.853Z,21.85
2018-07-21T03:30:00.877Z,21.85
2018-07-21T03:31:00.926Z,21.90
2018-07-21T03:32:00.922Z,21.74
2018-07-21T03:33:00.941Z,21.78
2018-07-21T03:34:00.966Z,21.77
2018-07-21T03:35:00.993Z,21.66
2018-07-21T03:36:01.012Z,21.66
2018-07-21T03:37:01.033Z,21.64
2018-07-21T03:38:01.061Z,21.64
2018-07-21T03:39:01.079Z,21.66
2018-07-21T03:40:01.100Z,21.64
2018-07-21T03:41:01.123Z,21.68
2018-07-21T03:42:01.147Z,21.66
2018-07-21T03:43:01.169Z,21.67
2018-07-21T03:44:01.190Z,21.66
2018-07-21T03:45:01.212Z,21.66
2018-07-21T03:46:01.234Z,21.62
2018-07-21T03:47:01.258Z,21.66
2018-07-21T03:48:01.279Z,21.62
2018-07-21T03:49:01.305Z,21.66
2018-07-21T03:50:01.327Z,21.58
2018-07-21T03:51:01.348Z,21.58
2018-07-21T03:52:01.368Z,21.56
2018-07-21T03:53:01.393Z,21.59
2018-07-21T03:54:01.415Z,21.62
2018-07-21T03:55:01.502Z,21.61
2018-07-21T03:56:01.459Z,21.66
2018-07-21T03:57:01.480Z,21.55
2018-07-21T03:58:01.508Z,21.64
2018-07-21T03:59:01.527Z,21.58
2018-07-21T04:00:01.546Z,21.61
2018-07-21T04:01:01.568Z,21.64
2018-07-21T04:02:01.591Z,21.67
2018-07-21T04:03:01.616Z,21.62
2018-07-21T04:04:01.637Z,21.64
2018-07-21T04:05:01.658Z,21.67
2018-07-21T04:06:01.681Z,21.66
2018-07-21T04:07:01.705Z,21.59
2018-07-21T04:08:01.727Z,21.73
2018-07-21T04:09:01.806Z,21.66
2018-07-21T04:10:01.771Z,21.67
2018-07-21T04:11:01.799Z,21.66
2018-07-21T04:12:01.817Z,21.56
2018-07-21T04:13:01.836Z,21.62
2018-07-21T04:14:01.862Z,21.62
2018-07-21T04:15:01.882Z,21.51
2018-07-21T04:16:01.906Z,21.55
2018-07-21T04:17:01.934Z,21.52
2018-07-21T04:18:01.952Z,21.43
2018-07-21T04:19:01.975Z,21.46
2018-07-21T04:20:01.993Z,21.48
2018-07-21T04:21:02.018Z,21.45
2018-07-21T04:22:02.040Z,21.46
2018-07-21T04:23:02.061Z,21.45
2018-07-21T04:24:02.083Z,21.53
2018-07-21T04:25:02.105Z,21.52
2018-07-21T04:26:02.130Z,21.51
2018-07-21T04:27:02.149Z,21.53
2018-07-21T04:28:02.175Z,21.52
2018-07-21T04:29:02.197Z,21.51
2018-07-21T04:30:02.218Z,21.51
2018-07-21T04:31:02.240Z,21.49
2018-07-21T04:32:02.263Z,21.51
2018-07-21T04:33:02.286Z,21.41
2018-07-21T04:34:02.311Z,21.43
2018-07-21T04:35:02.328Z,21.41
2018-07-21T04:36:02.350Z,21.38
2018-07-21T04:37:02.374Z,21.49
2018-07-21T04:38:02.398Z,21.41
2018-07-21T04:39:02.421Z,21.40
2018-07-21T04:40:02.440Z,21.38
2018-07-21T04:41:02.464Z,21.41
2018-07-21T04:42:02.485Z,21.38
2018-07-21T04:43:02.511Z,21.43
2018-07-21T04:44:02.532Z,21.38
2018-07-21T04:45:02.551Z,21.38
2018-07-21T04:46:02.575Z,21.34
2018-07-21T04:47:02.596Z,21.31
2018-07-21T04:48:02.617Z,21.30
2018-07-21T04:49:02.649Z,21.31
2018-07-21T04:50:02.662Z,21.28
2018-07-21T04:51:02.727Z,21.23
2018-07-21T04:52:02.710Z,21.22
2018-07-21T04:53:02.737Z,21.34
2018-07-21T04:54:02.888Z,21.30
2018-07-21T04:55:02.777Z,21.40
2018-07-21T04:56:02.795Z,21.30
2018-07-21T04:57:02.821Z,21.28
2018-07-21T04:58:02.840Z,21.30
2018-07-21T04:59:02.867Z,21.30
2018-07-21T05:00:02.890Z,21.33
2018-07-21T05:01:02.962Z,21.38
2018-07-21T05:02:02.929Z,21.34
2018-07-21T05:03:02.958Z,21.40
2018-07-21T05:04:02.973Z,21.41
2018-07-21T05:05:02.996Z,21.48
2018-07-21T05:06:03.021Z,21.45
2018-07-21T05:07:03.042Z,21.51
2018-07-21T05:08:03.065Z,21.51
2018-07-21T05:09:03.087Z,21.58
2018-07-21T05:10:03.111Z,21.56
2018-07-21T05:11:03.137Z,21.67
2018-07-21T05:12:03.154Z,21.67
2018-07-21T05:13:03.176Z,21.66
2018-07-21T05:14:03.199Z,21.77
2018-07-21T05:15:03.222Z,21.77
2018-07-21T05:16:03.243Z,21.74
2018-07-21T05:17:03.264Z,21.68
2018-07-21T05:18:03.289Z,21.68
2018-07-21T05:19:03.309Z,21.67
2018-07-21T05:20:03.371Z,21.62
2018-07-21T05:21:03.356Z,21.70
2018-07-21T05:22:03.376Z,21.67
2018-07-21T05:23:03.401Z,21.66
2018-07-21T05:24:03.427Z,21.67
2018-07-21T05:25:03.445Z,21.76
2018-07-21T05:26:03.467Z,21.77
2018-07-21T05:27:03.489Z,21.77
2018-07-21T05:28:03.512Z,21.85
2018-07-21T05:29:03.531Z,21.83
2018-07-21T05:30:03.557Z,21.89
2018-07-21T05:31:03.576Z,21.96
2018-07-21T05:32:03.601Z,21.97
2018-07-21T05:33:03.621Z,22.00
2018-07-21T05:34:03.649Z,21.97
2018-07-21T05:35:03.669Z,21.99
2018-07-21T05:36:03.690Z,22.02
2018-07-21T05:37:03.715Z,22.08
2018-07-21T05:38:03.734Z,22.07
2018-07-21T05:39:03.795Z,22.04
2018-07-21T05:40:03.784Z,22.02
2018-07-21T05:41:03.802Z,22.07
2018-07-21T05:42:03.825Z,22.11
2018-07-21T05:43:03.849Z,22.12
2018-07-21T05:44:03.870Z,22.11
2018-07-21T05:45:03.936Z,22.14
2018-07-21T05:46:03.913Z,22.07
2018-07-21T05:47:03.941Z,22.14
2018-07-21T05:48:03.959Z,22.20
2018-07-21T05:49:03.982Z,22.20
2018-07-21T05:50:04.006Z,22.20
2018-07-21T05:51:04.028Z,22.26
2018-07-21T05:52:04.052Z,22.27
2018-07-21T05:53:04.084Z,22.22
2018-07-21T05:54:04.098Z,22.30
2018-07-21T05:55:04.121Z,22.27
2018-07-21T05:56:04.140Z,22.36
2018-07-21T05:57:04.162Z,22.34
2018-07-21T05:58:04.186Z,22.41
2018-07-21T05:59:04.211Z,22.48
2018-07-21T06:00:04.231Z,22.49
2018-07-21T06:01:04.253Z,22.42
2018-07-21T06:02:04.276Z,22.54
2018-07-21T06:03:04.344Z,22.57
2018-07-21T06:04:04.324Z,22.51
2018-07-21T06:05:04.344Z,22.57
2018-07-21T06:06:04.375Z,22.66
2018-07-21T06:07:04.391Z,22.52
2018-07-21T06:08:04.415Z,22.54
2018-07-21T06:09:04.437Z,22.60
2018-07-21T06:10:04.462Z,22.61
2018-07-21T06:11:04.517Z,22.55
2018-07-21T06:12:04.506Z,22.63
2018-07-21T06:13:04.527Z,22.52
2018-07-21T06:14:04.551Z,22.63
2018-07-21T06:15:04.576Z,22.69
2018-07-21T06:16:04.596Z,22.55
2018-07-21T06:17:04.688Z,22.63
2018-07-21T06:18:04.645Z,22.60
2018-07-21T06:19:04.666Z,22.70
2018-07-21T06:20:04.689Z,22.67
2018-07-21T06:21:04.743Z,22.69
2018-07-21T06:22:04.736Z,22.73
2018-07-21T06:23:04.756Z,22.86
2018-07-21T06:24:04.780Z,22.78
2018-07-21T06:25:04.809Z,22.91
2018-07-21T06:26:04.826Z,22.99
2018-07-21T06:27:04.850Z,23.00
2018-07-21T06:28:04.932Z,22.92
2018-07-21T06:29:04.894Z,22.94
2018-07-21T06:30:04.919Z,22.91
2018-07-21T06:31:04.944Z,22.92
2018-07-21T06:32:04.966Z,22.96
2018-07-21T06:33:04.988Z,22.99
2018-07-21T06:34:05.010Z,22.94
2018-07-21T06:35:05.038Z,22.88
2018-07-21T06:36:05.059Z,23.04
2018-07-21T06:37:05.082Z,23.18
2018-07-21T06:38:05.105Z,23.16
2018-07-21T06:39:05.127Z,23.14
2018-07-21T06:40:05.151Z,23.09
2018-07-21T06:41:05.172Z,23.14
2018-07-21T06:42:05.198Z,23.18
2018-07-21T06:43:05.263Z,23.34
2018-07-21T06:44:05.243Z,23.28
2018-07-21T06:45:05.265Z,23.29
2018-07-21T06:46:05.290Z,23.50
2018-07-21T06:47:05.314Z,23.48
2018-07-21T06:48:05.335Z,23.56
2018-07-21T06:49:05.361Z,23.55
2018-07-21T06:50:05.384Z,23.64
2018-07-21T06:51:05.408Z,24.11
2018-07-21T06:52:05.431Z,24.42
2018-07-21T06:53:05.459Z,24.90
2018-07-21T06:54:05.479Z,25.26
2018-07-21T06:55:05.499Z,25.48
2018-07-21T06:56:05.525Z,25.63
2018-07-21T06:57:05.549Z,25.78
2018-07-21T06:58:05.570Z,25.70
2018-07-21T06:59:05.610Z,25.47
2018-07-21T07:00:05.617Z,25.45
2018-07-21T07:01:05.643Z,25.30
2018-07-21T07:02:05.668Z,25.17
2018-07-21T07:03:05.694Z,25.01
2018-07-21T07:04:05.716Z,25.08
2018-07-21T07:05:05.742Z,25.02
2018-07-21T07:06:05.773Z,25.00
2018-07-21T07:07:05.789Z,24.66
2018-07-21T07:08:05.816Z,24.56
2018-07-21T07:09:05.838Z,24.52
2018-07-21T07:10:05.911Z,24.78
2018-07-21T07:11:05.894Z,25.11
2018-07-21T07:12:05.912Z,25.12
2018-07-21T07:13:05.938Z,24.92
2018-07-21T07:14:05.962Z,24.89
2018-07-21T07:15:05.990Z,25.08
2018-07-21T07:16:06.015Z,25.00
2018-07-21T07:17:06.041Z,24.82
2018-07-21T07:18:06.066Z,24.64
2018-07-21T07:19:06.091Z,24.66
2018-07-21T07:20:06.112Z,24.33
2018-07-21T07:21:06.141Z,24.37
2018-07-21T07:22:06.162Z,24.36
2018-07-21T07:23:06.189Z,24.48
2018-07-21T07:24:06.213Z,24.75
2018-07-21T07:25:06.238Z,24.82
2018-07-21T07:26:06.263Z,25.01
2018-07-21T07:27:06.292Z,25.37
2018-07-21T07:28:06.313Z,25.64
2018-07-21T07:29:06.342Z,26.11
2018-07-21T07:30:06.364Z,26.35
2018-07-21T07:31:06.389Z,25.89
2018-07-21T07:32:06.415Z,25.54
2018-07-21T07:33:06.438Z,25.26
2018-07-21T07:34:06.466Z,25.26
2018-07-21T07:35:06.498Z,25.09
2018-07-21T07:36:06.517Z,24.93
2018-07-21T07:37:06.542Z,25.02
2018-07-21T07:38:06.587Z,25.05
2018-07-21T07:39:06.590Z,24.94
2018-07-21T07:40:06.618Z,24.87
2018-07-21T07:41:06.641Z,24.90
2018-07-21T07:42:06.685Z,24.90
2018-07-21T07:43:06.692Z,24.82
2018-07-21T07:44:06.717Z,24.94
2018-07-21T07:45:06.745Z,25.12
2018-07-21T07:46:06.770Z,25.44
2018-07-21T07:47:06.794Z,25.70
2018-07-21T07:48:06.818Z,25.51
2018-07-21T07:49:06.847Z,25.38
2018-07-21T07:50:06.872Z,25.11
2018-07-21T07:51:06.898Z,24.96
2018-07-21T07:52:06.922Z,25.02
2018-07-21T07:53:06.947Z,25.02
2018-07-21T07:54:06.973Z,25.00
2018-07-21T07:55:06.999Z,25.02
2018-07-21T07:56:07.022Z,24.97
2018-07-21T07:57:07.046Z,24.89
2018-07-21T07:58:07.073Z,24.70
2018-07-21T07:59:07.097Z,24.83
2018-07-21T08:00:07.325Z,24.89
2018-07-21T08:01:07.155Z,24.94
2018-07-21T08:02:07.173Z,25.09
2018-07-21T08:03:07.198Z,25.15
2018-07-21T08:04:07.229Z,25.38
2018-07-21T08:05:07.248Z,25.64
2018-07-21T08:06:07.274Z,26.11
2018-07-21T08:07:07.300Z,26.42
2018-07-21T08:08:07.327Z,26.63
2018-07-21T08:09:07.352Z,26.96
2018-07-21T08:10:07.375Z,26.69
2018-07-21T08:11:07.403Z,26.72
2018-07-21T08:12:07.428Z,26.84
2018-07-21T08:13:07.452Z,26.69
2018-07-21T08:14:07.528Z,26.47
2018-07-21T08:15:07.503Z,26.31
2018-07-21T08:16:07.532Z,26.32
2018-07-21T08:17:07.558Z,26.22
2018-07-21T08:18:07.619Z,26.20
2018-07-21T08:19:07.607Z,26.04
2018-07-21T08:20:07.636Z,26.01
2018-07-21T08:21:07.662Z,25.89
2018-07-21T08:22:07.685Z,25.70
2018-07-21T08:23:07.710Z,25.69
2018-07-21T08:24:07.736Z,25.64
2018-07-21T08:25:07.765Z,25.70
2018-07-21T08:26:07.790Z,25.86
2018-07-21T08:27:07.816Z,26.04
2018-07-21T08:28:07.843Z,26.41
2018-07-21T08:29:07.896Z,26.75
2018-07-21T08:30:07.893Z,26.72
2018-07-21T08:31:07.921Z,26.59
2018-07-21T08:32:07.948Z,26.50
2018-07-21T08:33:07.974Z,26.19
2018-07-21T08:34:08.000Z,26.07
2018-07-21T08:35:08.024Z,26.00
2018-07-21T08:36:08.052Z,26.00
2018-07-21T08:37:08.075Z,25.74
2018-07-21T08:38:08.104Z,25.47
2018-07-21T08:39:08.136Z,25.48
2018-07-21T08:40:08.157Z,25.48
2018-07-21T08:41:08.183Z,25.57
2018-07-21T08:42:08.210Z,25.51
2018-07-21T08:43:08.233Z,25.51
2018-07-21T08:44:08.260Z,25.48
2018-07-21T08:45:08.284Z,25.51
2018-07-21T08:46:08.313Z,25.56
2018-07-21T08:47:08.338Z,25.85
2018-07-21T08:48:08.363Z,26.19
2018-07-21T08:49:08.389Z,26.52
2018-07-21T08:50:08.418Z,26.42
2018-07-21T08:51:08.441Z,26.31
2018-07-21T08:52:08.468Z,26.22
2018-07-21T08:53:08.495Z,25.93
2018-07-21T08:54:08.522Z,26.01
2018-07-21T08:55:08.545Z,25.88
2018-07-21T08:56:08.597Z,25.70
2018-07-21T08:57:08.604Z,25.64
2018-07-21T08:58:08.627Z,25.63
2018-07-21T08:59:08.652Z,25.69
2018-07-21T09:00:08.677Z,25.64
2018-07-21T09:01:08.704Z,25.56
2018-07-21T09:02:08.732Z,25.56
2018-07-21T09:03:08.759Z,25.78
2018-07-21T09:04:08.786Z,25.96
2018-07-21T09:05:08.808Z,26.00
2018-07-21T09:06:08.834Z,25.88
2018-07-21T09:07:08.860Z,26.00
2018-07-21T09:08:08.890Z,26.06
2018-07-21T09:09:08.913Z,26.16
2018-07-21T09:10:08.939Z,26.23
2018-07-21T09:11:09.038Z,26.15
2018-07-21T09:12:08.987Z,26.15
2018-07-21T09:13:09.047Z,26.23
2018-07-21T09:14:09.041Z,26.19
2018-07-21T09:15:09.064Z,26.15
2018-07-21T09:16:09.093Z,26.22
2018-07-21T09:17:09.116Z,26.19
2018-07-21T09:18:09.143Z,26.45
2018-07-21T09:19:09.169Z,26.53
2018-07-21T09:20:09.194Z,26.61
2018-07-21T09:21:09.224Z,26.68
2018-07-21T09:22:09.245Z,26.53
2018-07-21T09:23:09.275Z,26.44
2018-07-21T09:24:09.297Z,26.45
2018-07-21T09:25:09.326Z,26.47
2018-07-21T09:26:09.352Z,26.97
2018-07-21T09:27:09.379Z,27.45
2018-07-21T09:28:09.454Z,27.84
2018-07-21T09:29:09.430Z,27.69
2018-07-21T09:30:09.454Z,27.81
2018-07-21T09:31:09.481Z,27.81
2018-07-21T09:32:09.510Z,27.94
2018-07-21T09:33:09.532Z,27.80
2018-07-21T09:34:09.579Z,27.71
2018-07-21T09:35:09.586Z,27.86
2018-07-21T09:36:09.612Z,28.17
2018-07-21T09:37:09.644Z,28.14
2018-07-21T09:38:09.669Z,28.23
2018-07-21T09:39:09.696Z,28.18
2018-07-21T09:40:09.728Z,28.35
2018-07-21T09:41:09.749Z,28.33
2018-07-21T09:42:09.773Z,28.18
2018-07-21T09:43:09.800Z,28.14
2018-07-21T09:44:09.827Z,28.30
2018-07-21T09:45:09.854Z,28.14
2018-07-21T09:46:09.882Z,27.90
2018-07-21T09:47:09.910Z,27.79
2018-07-21T09:48:09.941Z,27.84
2018-07-21T09:49:09.996Z,27.89
2018-07-21T09:50:09.992Z,28.20
2018-07-21T09:51:10.021Z,28.57
2018-07-21T09:52:10.049Z,28.64
2018-07-21T09:53:10.072Z,28.76
2018-07-21T09:54:10.104Z,28.76
2018-07-21T09:55:10.128Z,28.57
2018-07-21T09:56:10.156Z,28.48
2018-07-21T09:57:10.186Z,28.58
2018-07-21T09:58:10.212Z,28.45
2018-07-21T09:59:10.238Z,28.36
2018-07-21T10:00:10.265Z,28.65
2018-07-21T10:01:10.294Z,28.68
2018-07-21T10:02:10.324Z,28.94
2018-07-21T10:03:10.350Z,29.48
2018-07-21T10:04:10.377Z,30.07
2018-07-21T10:05:10.409Z,30.06
2018-07-21T10:06:10.433Z,30.04
2018-07-21T10:07:10.462Z,30.06
2018-07-21T10:08:10.490Z,30.51
2018-07-21T10:09:10.519Z,30.64
2018-07-21T10:10:10.545Z,30.70
2018-07-21T10:11:10.575Z,30.56
2018-07-21T10:12:10.605Z,30.45
2018-07-21T10:13:10.634Z,30.60
2018-07-21T10:14:10.663Z,30.73
2018-07-21T10:15:10.691Z,30.69
2018-07-21T10:16:10.716Z,30.69
2018-07-21T10:17:10.749Z,30.63
2018-07-21T10:18:10.778Z,30.62
2018-07-21T10:19:10.807Z,30.84
2018-07-21T10:20:10.836Z,31.01
2018-07-21T10:21:10.862Z,30.97
2018-07-21T10:22:10.938Z,31.60
2018-07-21T10:23:10.922Z,31.98
2018-07-21T10:24:10.949Z,32.32
2018-07-21T10:25:10.983Z,32.01
2018-07-21T10:26:11.012Z,31.58
2018-07-21T10:27:11.038Z,31.37
2018-07-21T10:28:11.092Z,30.97
2018-07-21T10:29:11.100Z,30.94
2018-07-21T10:30:11.146Z,30.99
2018-07-21T10:31:11.158Z,31.33
2018-07-21T10:32:11.187Z,31.95
2018-07-21T10:33:11.267Z,32.01
2018-07-21T10:34:11.251Z,32.30
2018-07-21T10:35:11.279Z,32.05
2018-07-21T10:36:11.312Z,31.88
2018-07-21T10:37:11.340Z,32.15
2018-07-21T10:38:11.412Z,32.10
2018-07-21T10:39:11.399Z,31.95
2018-07-21T10:40:11.428Z,32.09
2018-07-21T10:41:11.460Z,32.31
2018-07-21T10:42:11.498Z,32.27
2018-07-21T10:43:11.523Z,32.59
2018-07-21T10:44:11.553Z,32.27
2018-07-21T10:45:11.584Z,32.13
2018-07-21T10:46:11.614Z,31.93
2018-07-21T10:47:11.642Z,32.03
2018-07-21T10:48:11.679Z,31.80
2018-07-21T10:49:11.708Z,31.44
2018-07-21T10:50:11.737Z,30.96
2018-07-21T10:51:11.764Z,30.73
2018-07-21T10:52:11.796Z,30.73
2018-07-21T10:53:11.831Z,30.73
2018-07-21T10:54:11.861Z,30.97
2018-07-21T10:55:11.891Z,30.86
2018-07-21T10:56:11.918Z,30.79
2018-07-21T10:57:11.951Z,30.40
2018-07-21T10:58:11.987Z,30.25
2018-07-21T10:59:12.014Z,30.29
2018-07-21T11:00:12.051Z,30.70
2018-07-21T11:01:12.074Z,30.63
2018-07-21T11:02:12.100Z,30.54
2018-07-21T11:03:12.135Z,30.63
2018-07-21T11:04:12.165Z,30.59
2018-07-21T11:05:12.195Z,30.88
2018-07-21T11:06:12.225Z,30.79
2018-07-21T11:07:12.255Z,31.23
2018-07-21T11:08:12.285Z,31.06
2018-07-21T11:09:12.312Z,30.96
2018-07-21T11:10:12.347Z,30.96
2018-07-21T11:11:12.372Z,30.93
2018-07-21T11:12:12.403Z,30.85
2018-07-21T11:13:12.432Z,31.22
2018-07-21T11:14:12.462Z,31.63
2018-07-21T11:15:12.549Z,31.91
2018-07-21T11:16:12.524Z,32.01
2018-07-21T11:17:12.551Z,32.46
2018-07-21T11:18:12.583Z,32.54
2018-07-21T11:19:12.614Z,32.45
2018-07-21T11:20:12.641Z,32.80
2018-07-21T11:21:12.671Z,33.11
2018-07-21T11:22:12.702Z,33.39
2018-07-21T11:23:12.736Z,33.43
2018-07-21T11:24:12.762Z,33.23
2018-07-21T11:25:12.792Z,33.05
2018-07-21T11:26:12.828Z,33.43
2018-07-21T11:27:12.859Z,33.68
2018-07-21T11:28:12.882Z,34.00
2018-07-21T11:29:12.913Z,33.92
2018-07-21T11:30:12.944Z,34.03
2018-07-21T11:31:12.975Z,34.06
2018-07-21T11:32:13.007Z,33.87
2018-07-21T11:33:13.035Z,33.63
2018-07-21T11:34:13.067Z,33.81
2018-07-21T11:35:13.208Z,33.71
2018-07-21T11:36:13.378Z,33.93
2018-07-21T11:37:13.161Z,33.75
2018-07-21T11:38:13.194Z,33.83
2018-07-21T11:39:13.222Z,34.02
2018-07-21T11:40:13.253Z,34.32
2018-07-21T11:41:13.285Z,34.40
2018-07-21T11:42:13.316Z,34.27
2018-07-21T11:43:13.350Z,34.10
2018-07-21T11:44:13.380Z,34.56
2018-07-21T11:45:13.414Z,34.97
2018-07-21T11:46:13.442Z,35.16
2018-07-21T11:47:13.477Z,35.23
2018-07-21T11:48:13.505Z,35.40
2018-07-21T11:49:13.540Z,35.28
2018-07-21T11:50:13.572Z,35.23
2018-07-21T11:51:13.604Z,35.30
2018-07-21T11:52:13.632Z,35.31
2018-07-21T11:53:13.664Z,35.40
2018-07-21T11:55:13.728Z,35.50
2018-07-21T11:56:13.764Z,35.49
2018-07-21T11:57:13.800Z,35.26
2018-07-21T11:58:13.828Z,35.02
2018-07-21T11:59:13.883Z,34.93
2018-07-21T12:00:13.895Z,35.02
2018-07-21T12:01:13.927Z,34.67
2018-07-21T12:02:13.958Z,34.96
2018-07-21T12:03:13.995Z,35.20
2018-07-21T12:04:14.025Z,34.86
2018-07-21T12:05:14.061Z,35.04
2018-07-21T12:06:14.090Z,35.09
2018-07-21T12:07:14.122Z,35.20
2018-07-21T12:08:14.151Z,35.04
2018-07-21T12:09:14.187Z,35.39
2018-07-21T12:10:14.220Z,35.58
2018-07-21T12:11:14.251Z,35.64
2018-07-21T12:12:14.285Z,35.90
2018-07-21T12:13:14.377Z,35.77
2018-07-21T12:14:14.350Z,35.86
2018-07-21T12:15:14.381Z,36.17
2018-07-21T12:16:14.412Z,36.02
2018-07-21T12:17:14.445Z,36.08
2018-07-21T12:18:14.482Z,36.02
2018-07-21T12:19:14.510Z,35.31
2018-07-21T12:20:14.593Z,34.75
2018-07-21T12:21:14.579Z,34.41
2018-07-21T12:22:14.608Z,34.45
2018-07-21T12:23:14.644Z,34.55
2018-07-21T12:24:14.675Z,34.93
2018-07-21T12:25:14.706Z,35.18
2018-07-21T12:26:14.742Z,35.30
2018-07-21T12:27:14.774Z,35.27
2018-07-21T12:28:14.804Z,35.34
2018-07-21T12:29:14.838Z,35.42
2018-07-21T12:30:14.872Z,35.38
2018-07-21T12:31:14.903Z,35.55
2018-07-21T12:32:14.936Z,35.84
2018-07-21T12:33:14.969Z,35.69
2018-07-21T12:34:15.011Z,35.58
2018-07-21T12:35:15.137Z,35.38
2018-07-21T12:36:15.067Z,35.30
2018-07-21T12:37:15.114Z,35.39
2018-07-21T12:38:15.131Z,35.39
2018-07-21T12:39:15.164Z,35.23
2018-07-21T12:40:15.193Z,35.34
2018-07-21T12:41:15.225Z,35.08
2018-07-21T12:42:15.257Z,35.12
2018-07-21T12:43:15.293Z,35.40
2018-07-21T12:44:15.324Z,35.64
2018-07-21T12:45:15.357Z,35.64
2018-07-21T12:46:15.386Z,35.27
2018-07-21T12:47:15.496Z,35.20
2018-07-21T12:48:15.452Z,35.43
2018-07-21T12:49:15.490Z,35.26
2018-07-21T12:50:15.517Z,35.30
2018-07-21T12:51:15.548Z,34.87
2018-07-21T12:52:15.577Z,34.51
2018-07-21T12:53:15.614Z,34.46
2018-07-21T12:54:15.643Z,34.51